createdAt,value
2018-12-29T00:00:47.093Z,26.53
2018-12-29T00:03:48.770Z,24.40
2018-12-29T00:06:08.070Z,26.30
2018-12-29T00:09:09.890Z,25.50
2018-12-29T00:11:45.744Z,25.90
2018-12-29T00:14:15.107Z,25.70
2018-12-29T00:17:03.140Z,25.27
2018-12-29T00:19:51.129Z,24.40
2018-12-29T00:22:20.852Z,23.73
2018-12-29T00:25:08.858Z,25.43
2018-12-29T00:27:56.928Z,24.80
2018-12-29T00:31:06.193Z,24.00
2018-12-29T00:36:54.790Z,25.90
2018-12-29T00:39:42.831Z,24.57
2018-12-29T00:42:30.845Z,25.00
2018-12-29T00:45:09.160Z,25.33
2018-12-29T00:53:09.251Z,25.07
2018-12-29T01:01:06.108Z,24.67
2018-12-29T01:03:47.487Z,24.87
2018-12-29T01:06:28.340Z,24.93
2018-12-29T01:08:58.522Z,23.60
2018-12-29T01:11:28.200Z,26.13
2018-12-29T01:13:57.207Z,25.53
2018-12-29T01:16:27.199Z,24.30
2018-12-29T01:18:56.932Z,24.93
2018-12-29T01:21:25.954Z,25.27
2018-12-29T01:23:55.278Z,24.73
2018-12-29T01:26:25.006Z,24.53
2018-12-29T01:28:54.780Z,24.90
2018-12-29T01:31:24.798Z,25.87
2018-12-29T01:33:54.519Z,25.00
2018-12-29T01:36:24.207Z,23.93
2018-12-29T01:38:57.203Z,24.93
2018-12-29T01:41:26.886Z,24.27
2018-12-29T01:43:59.518Z,25.57
2018-12-29T01:46:29.479Z,24.33
2018-12-29T01:49:02.697Z,26.37
2018-12-29T01:51:31.766Z,26.13
2018-12-29T01:54:07.356Z,24.97
2018-12-29T01:56:36.378Z,27.73
2018-12-29T01:59:07.405Z,26.70
2018-12-29T02:01:36.527Z,27.17
2018-12-29T02:04:16.816Z,27.27
2018-12-29T02:08:21.043Z,26.47
2018-12-29T02:10:17.855Z,25.67
2018-12-29T02:13:34.564Z,26.60
2018-12-29T02:16:27.639Z,27.73
2018-12-29T02:19:27.748Z,26.20
2018-12-29T02:22:33.244Z,26.47
2018-12-29T02:28:42.912Z,26.90
2018-12-29T02:34:12.023Z,27.00
2018-12-29T02:37:11.466Z,28.17
2018-12-29T02:39:46.002Z,28.07
2018-12-29T02:42:23.776Z,29.30
2018-12-29T02:45:01.566Z,28.23
2018-12-29T02:47:42.302Z,27.70
2018-12-29T02:50:22.037Z,28.17
2018-12-29T02:53:05.363Z,28.67
2018-12-29T02:55:38.992Z,29.10
2018-12-29T02:58:06.423Z,29.87
2018-12-29T03:00:36.103Z,29.17
2018-12-29T03:03:05.798Z,32.03
2018-12-29T03:05:35.521Z,30.50
2018-12-29T03:08:04.605Z,30.17
2018-12-29T03:10:34.338Z,30.33
2018-12-29T03:13:06.312Z,31.73
2018-12-29T03:15:41.379Z,31.67
2018-12-29T03:18:07.311Z,31.23
2018-12-29T03:20:37.325Z,32.27
2018-12-29T03:23:07.000Z,33.10
2018-12-29T03:25:36.685Z,33.77
2018-12-29T03:28:06.763Z,32.40
2018-12-29T03:30:36.442Z,34.80
2018-12-29T03:33:06.500Z,32.80
2018-12-29T03:35:35.816Z,31.53
2018-12-29T03:38:08.795Z,34.73
2018-12-29T03:40:38.479Z,36.33
2018-12-29T03:43:13.759Z,33.17
2018-12-29T03:45:49.155Z,33.00
2018-12-29T03:48:14.410Z,36.60
2018-12-29T03:50:43.718Z,37.23
2018-12-29T03:53:18.227Z,37.70
2018-12-29T03:55:48.108Z,35.93
2018-12-29T03:58:20.042Z,38.33
2018-12-29T04:00:49.739Z,37.23
2018-12-29T04:03:22.715Z,35.33
2018-12-29T04:05:52.717Z,38.37
2018-12-29T04:08:24.148Z,35.63
2018-12-29T04:10:53.859Z,38.63
2018-12-29T04:13:26.466Z,36.33
2018-12-29T04:15:58.238Z,38.53
2018-12-29T04:18:29.405Z,35.60
2018-12-29T04:20:59.079Z,36.03
2018-12-29T04:23:33.768Z,36.37
2018-12-29T04:26:03.520Z,36.90
2018-12-29T04:28:35.552Z,36.50
2018-12-29T04:31:05.498Z,34.80
2018-12-29T04:33:37.226Z,36.43
2018-12-29T04:36:06.229Z,34.63
2018-12-29T04:38:41.171Z,36.83
2018-12-29T04:41:10.442Z,34.87
2018-12-29T04:43:43.515Z,34.57
2018-12-29T04:46:13.247Z,34.43
2018-12-29T04:48:46.891Z,35.53
2018-12-29T04:51:16.613Z,34.87
2018-12-29T04:53:49.410Z,34.50
2018-12-29T04:56:19.087Z,35.80
2018-12-29T04:58:52.915Z,34.67
2018-12-29T05:01:22.882Z,33.57
2018-12-29T05:03:55.139Z,32.20
2018-12-29T05:06:24.167Z,35.20
2018-12-29T05:08:58.095Z,35.70
2018-12-29T05:11:27.089Z,33.83
2018-12-29T05:14:03.517Z,32.27
2018-12-29T05:16:33.208Z,34.43
2018-12-29T05:19:04.859Z,34.37
2018-12-29T05:21:34.166Z,33.07
2018-12-29T05:24:07.791Z,32.27
2018-12-29T05:26:37.483Z,32.23
2018-12-29T05:29:15.059Z,33.17
2018-12-29T05:31:44.117Z,32.13
2018-12-29T05:34:14.722Z,31.90
2018-12-29T05:36:43.730Z,31.00
2018-12-29T05:39:18.282Z,33.87
2018-12-29T05:41:47.584Z,30.13
2018-12-29T05:44:20.774Z,31.33
2018-12-29T05:46:49.784Z,34.27
2018-12-29T05:49:22.345Z,33.00
2018-12-29T05:51:52.053Z,31.93
2018-12-29T05:54:25.392Z,30.57
2018-12-29T05:56:55.120Z,30.83
2018-12-29T05:59:27.471Z,32.73
2018-12-29T06:01:56.821Z,30.90
2018-12-29T06:04:29.855Z,30.93
2018-12-29T06:06:59.539Z,32.17
2018-12-29T06:09:31.851Z,32.57
2018-12-29T06:12:00.866Z,33.07
2018-12-29T06:14:36.750Z,32.43
2018-12-29T06:17:06.456Z,33.83
2018-12-29T06:19:39.199Z,31.33
2018-12-29T06:22:09.161Z,33.50
2018-12-29T06:24:40.487Z,31.27
2018-12-29T06:27:09.504Z,32.90
2018-12-29T06:29:44.181Z,32.23
2018-12-29T06:32:13.863Z,32.33
2018-12-29T06:34:45.768Z,31.13
2018-12-29T06:37:15.763Z,33.70
2018-12-29T06:39:49.131Z,31.23
2018-12-29T06:42:18.161Z,32.93
2018-12-29T06:44:52.451Z,31.33
2018-12-29T06:47:22.139Z,30.30
2018-12-29T06:49:55.579Z,33.93
2018-12-29T06:52:25.259Z,30.93
2018-12-29T06:54:57.439Z,33.67
2018-12-29T06:57:27.447Z,33.93
2018-12-29T07:00:01.186Z,31.30
2018-12-29T07:02:30.997Z,31.90
2018-12-29T07:05:05.383Z,30.90
2018-12-29T07:07:34.422Z,30.30
2018-12-29T07:10:06.897Z,32.50
2018-12-29T07:12:35.904Z,31.87
2018-12-29T07:15:11.988Z,30.43
2018-12-29T07:17:40.985Z,29.60
2018-12-29T07:20:13.782Z,31.50
2018-12-29T07:22:43.507Z,29.17
2018-12-29T07:25:16.135Z,30.23
2018-12-29T07:27:46.091Z,29.13
2018-12-29T07:30:19.459Z,28.97
2018-12-29T07:32:49.143Z,28.23
2018-12-29T07:35:21.649Z,30.37
2018-12-29T07:37:51.371Z,27.60
2018-12-29T07:40:23.444Z,29.20
2018-12-29T07:42:53.415Z,28.60
2018-12-29T07:45:25.509Z,27.70
2018-12-29T07:47:55.202Z,26.63
2018-12-29T07:50:28.514Z,24.27
2018-12-29T07:52:57.849Z,24.50
2018-12-29T07:55:32.081Z,25.80
2018-12-29T07:58:01.771Z,25.47
2018-12-29T08:00:34.612Z,25.00
2018-12-29T08:03:04.036Z,25.73
2018-12-29T08:05:36.684Z,24.43
2018-12-29T08:08:06.643Z,24.90
2018-12-29T08:10:38.832Z,22.00
2018-12-29T08:13:08.671Z,23.47
2018-12-29T08:15:41.635Z,24.80
2018-12-29T08:18:10.636Z,22.57
2018-12-29T08:20:44.226Z,23.03
2018-12-29T08:23:13.894Z,23.67
2018-12-29T08:25:48.320Z,20.70
2018-12-29T08:28:18.300Z,21.63
2018-12-29T08:30:50.582Z,24.10
2018-12-29T08:33:21.889Z,25.23
2018-12-29T08:35:53.016Z,23.33
2018-12-29T08:38:22.056Z,23.50
2018-12-29T08:40:56.293Z,22.37
2018-12-29T08:43:25.310Z,23.43
2018-12-29T08:46:00.164Z,21.07
2018-12-29T08:48:30.139Z,22.90
2018-12-29T08:51:03.644Z,24.43
2018-12-29T08:53:33.611Z,22.83
2018-12-29T08:56:05.479Z,23.30
2018-12-29T08:58:35.203Z,24.97
2018-12-29T09:01:11.518Z,22.50
2018-12-29T09:03:41.288Z,23.63
2018-12-29T09:06:13.544Z,22.50
2018-12-29T09:08:43.350Z,22.80
2018-12-29T09:11:15.825Z,22.43
2018-12-29T09:13:45.522Z,21.87
2018-12-29T09:16:18.449Z,22.77
2018-12-29T09:18:49.845Z,21.70
2018-12-29T09:21:21.062Z,21.10
2018-12-29T09:23:50.791Z,21.83
2018-12-29T09:26:24.342Z,22.07
2018-12-29T09:28:54.055Z,22.97
2018-12-29T09:31:27.115Z,21.87
2018-12-29T09:33:56.806Z,21.00
2018-12-29T09:36:29.831Z,20.23
2018-12-29T09:38:59.849Z,20.23
2018-12-29T09:41:32.717Z,20.70
2018-12-29T09:44:02.431Z,16.40
2018-12-29T09:46:35.701Z,18.33
2018-12-29T09:49:05.423Z,22.03
2018-12-29T09:51:37.775Z,18.80
2018-12-29T09:54:07.755Z,18.40
2018-12-29T09:56:41.120Z,18.27
2018-12-29T09:59:10.151Z,17.97
2018-12-29T10:01:41.849Z,18.50
2018-12-29T10:04:10.868Z,17.43
2018-12-29T10:06:45.277Z,17.43
2018-12-29T10:09:14.573Z,17.40
2018-12-29T10:11:49.860Z,16.53
2018-12-29T10:14:19.593Z,16.30
2018-12-29T10:16:52.359Z,15.93
2018-12-29T10:19:22.059Z,16.53
2018-12-29T10:21:54.917Z,16.07
2018-12-29T10:24:24.243Z,14.57
2018-12-29T10:26:58.113Z,14.50
2018-12-29T10:29:27.851Z,16.00
2018-12-29T10:31:59.719Z,13.87
2018-12-29T10:34:29.394Z,14.77
2018-12-29T10:37:03.215Z,13.07
2018-12-29T10:39:32.895Z,12.93
2018-12-29T10:42:08.021Z,13.37
2018-12-29T10:44:37.036Z,12.40
2018-12-29T10:47:11.887Z,12.83
2018-12-29T10:49:41.581Z,13.10
2018-12-29T10:52:14.646Z,13.57
2018-12-29T10:54:46.407Z,13.37
2018-12-29T10:57:16.663Z,13.17
2018-12-29T10:59:46.369Z,13.57
2018-12-29T11:02:18.468Z,12.47
2018-12-29T11:04:47.520Z,12.90
2018-12-29T11:07:21.020Z,13.57
2018-12-29T11:09:50.847Z,12.80
2018-12-29T11:12:23.916Z,12.27
2018-12-29T11:14:53.706Z,12.10
2018-12-29T11:17:26.065Z,12.53
2018-12-29T11:19:55.752Z,12.37
2018-12-29T11:22:30.530Z,12.07
2018-12-29T11:25:00.551Z,12.17
2018-12-29T11:27:33.345Z,10.90
2018-12-29T11:30:03.063Z,12.00
2018-12-29T11:32:35.289Z,16.83
2018-12-29T11:35:07.421Z,11.23
2018-12-29T11:37:38.453Z,11.03
2018-12-29T11:40:08.361Z,9.83
2018-12-29T11:42:40.923Z,9.97
2018-12-29T11:45:10.621Z,9.10
2018-12-29T11:47:49.752Z,10.00
2018-12-29T11:50:15.663Z,10.33
2018-12-29T11:52:46.345Z,9.87
2018-12-29T11:55:16.057Z,9.73
2018-12-29T11:57:50.013Z,10.00
2018-12-29T12:00:19.044Z,10.43
2018-12-29T12:02:51.944Z,9.80
2018-12-29T12:05:21.370Z,9.33
2018-12-29T12:07:54.269Z,9.43
2018-12-29T12:10:23.504Z,10.10
2018-12-29T12:12:57.920Z,10.23
2018-12-29T12:15:27.678Z,9.13
2018-12-29T12:18:01.342Z,8.50
2018-12-29T12:20:31.413Z,8.87
2018-12-29T12:23:05.415Z,8.63
2018-12-29T12:25:35.407Z,7.50
2018-12-29T12:28:06.462Z,11.87
2018-12-29T12:30:35.472Z,8.07
2018-12-29T12:33:13.124Z,7.70
2018-12-29T12:35:42.811Z,8.27
2018-12-29T12:38:15.456Z,7.70
2018-12-29T12:40:45.204Z,7.30
2018-12-29T12:43:16.999Z,7.43
2018-12-29T12:45:46.209Z,7.70
2018-12-29T12:48:19.919Z,7.70
2018-12-29T12:50:50.421Z,6.70
2018-12-29T12:53:22.925Z,6.77
2018-12-29T12:55:52.688Z,8.10
2018-12-29T12:58:25.017Z,8.90
2018-12-29T13:00:55.388Z,8.00
2018-12-29T13:03:27.652Z,7.77
2018-12-29T13:05:57.628Z,8.30
2018-12-29T13:08:30.071Z,8.67
2018-12-29T13:10:59.770Z,7.87
2018-12-29T13:13:33.172Z,11.93
2018-12-29T13:16:02.855Z,10.17
2018-12-29T13:18:34.020Z,10.77
2018-12-29T13:21:04.036Z,10.30
2018-12-29T13:23:38.627Z,10.00
2018-12-29T13:26:07.818Z,7.93
2018-12-29T13:28:40.374Z,8.23
2018-12-29T13:31:09.408Z,7.63
2018-12-29T13:33:42.657Z,10.87
2018-12-29T13:36:11.896Z,7.67
2018-12-29T13:38:47.889Z,7.80
2018-12-29T13:41:17.916Z,8.03
2018-12-29T13:43:49.944Z,7.63
2018-12-29T13:46:22.120Z,7.20
2018-12-29T13:48:53.347Z,6.83
2018-12-29T13:51:22.380Z,7.40
2018-12-29T13:53:55.060Z,7.50
2018-12-29T13:56:24.812Z,9.50
2018-12-29T13:58:57.600Z,9.57
2018-12-29T14:01:27.627Z,10.07
2018-12-29T14:04:02.020Z,9.87
2018-12-29T14:06:31.375Z,10.27
2018-12-29T14:09:04.782Z,10.80
2018-12-29T14:11:33.823Z,11.03
2018-12-29T14:14:07.250Z,11.63
2018-12-29T14:16:36.538Z,11.83
2018-12-29T14:19:11.297Z,10.00
2018-12-29T14:21:40.995Z,10.50
2018-12-29T14:24:12.838Z,9.17
2018-12-29T14:26:41.862Z,9.10
2018-12-29T14:29:18.146Z,8.53
2018-12-29T14:31:47.493Z,7.87
2018-12-29T14:34:19.205Z,6.87
2018-12-29T14:36:48.234Z,6.83
2018-12-29T14:39:21.477Z,7.33
2018-12-29T14:41:50.595Z,7.87
2018-12-29T14:44:23.512Z,7.33
2018-12-29T14:46:53.604Z,7.27
2018-12-29T14:49:25.372Z,5.93
2018-12-29T14:51:55.095Z,5.23
2018-12-29T14:54:32.114Z,5.60
2018-12-29T14:57:01.198Z,4.40
2018-12-29T14:59:31.661Z,4.87
2018-12-29T15:02:01.792Z,4.20
2018-12-29T15:04:35.800Z,3.37
2018-12-29T15:07:04.832Z,3.23
2018-12-29T15:09:36.204Z,3.40
2018-12-29T15:12:05.988Z,2.47
2018-12-29T15:14:41.279Z,3.60
2018-12-29T15:17:10.456Z,3.83
2018-12-29T15:19:40.820Z,3.50
2018-12-29T15:22:10.530Z,3.53
2018-12-29T15:24:45.739Z,3.57
2018-12-29T15:27:15.823Z,3.50
2018-12-29T15:29:48.589Z,4.33
2018-12-29T15:32:17.915Z,3.50
2018-12-29T15:34:50.149Z,3.60
2018-12-29T15:37:22.097Z,4.03
2018-12-29T15:39:53.913Z,2.87
2018-12-29T15:42:23.379Z,3.90
2018-12-29T15:44:55.575Z,3.30
2018-12-29T15:47:24.580Z,3.87
2018-12-29T15:49:59.721Z,3.40
2018-12-29T15:52:28.748Z,3.47
2018-12-29T15:55:03.793Z,3.50
2018-12-29T15:57:32.800Z,4.53
2018-12-29T16:00:07.873Z,4.37
2018-12-29T16:02:37.862Z,4.37
2018-12-29T16:05:09.564Z,3.97
2018-12-29T16:07:41.513Z,4.27
2018-12-29T16:10:13.367Z,6.30
2018-12-29T16:12:43.076Z,5.43
2018-12-29T16:15:16.291Z,6.73
2018-12-29T16:17:45.581Z,5.87
2018-12-29T16:20:17.811Z,6.27
2018-12-29T16:22:47.737Z,5.67
2018-12-29T16:25:20.146Z,5.83
2018-12-29T16:27:49.852Z,6.07
2018-12-29T16:30:22.557Z,5.37
2018-12-29T16:32:53.224Z,6.23
2018-12-29T16:35:26.872Z,5.40
2018-12-29T16:37:56.345Z,5.67
2018-12-29T16:40:30.238Z,6.30
2018-12-29T16:42:59.895Z,5.47
2018-12-29T16:45:31.776Z,5.47
2018-12-29T16:48:00.809Z,6.40
2018-12-29T16:50:34.606Z,6.50
2018-12-29T16:53:05.610Z,7.13
2018-12-29T16:55:36.153Z,6.37
2018-12-29T16:58:05.872Z,6.37
2018-12-29T17:00:39.364Z,6.17
2018-12-29T17:03:08.544Z,5.80
2018-12-29T17:05:44.467Z,6.97
2018-12-29T17:08:13.779Z,6.80
2018-12-29T17:10:46.033Z,6.93
2018-12-29T17:13:15.173Z,6.97
2018-12-29T17:15:48.102Z,6.60
2018-12-29T17:18:17.123Z,6.90
2018-12-29T17:20:51.345Z,6.03
2018-12-29T17:23:20.368Z,7.47
2018-12-29T17:25:54.392Z,7.87
2018-12-29T17:28:24.072Z,8.23
2018-12-29T17:31:01.467Z,7.70
2018-12-29T17:33:30.588Z,7.40
2018-12-29T17:36:01.336Z,8.00
2018-12-29T17:38:30.388Z,7.23
2018-12-29T17:41:03.836Z,7.73
2018-12-29T17:43:32.849Z,8.17
2018-12-29T17:46:06.948Z,7.87
2018-12-29T17:48:36.773Z,7.53
2018-12-29T17:51:11.581Z,8.43
2018-12-29T17:53:47.803Z,8.43
2018-12-29T17:56:15.544Z,7.27
2018-12-29T17:58:44.561Z,8.07
2018-12-29T18:01:17.890Z,9.20
2018-12-29T18:03:47.291Z,9.23
2018-12-29T18:06:20.168Z,8.80
2018-12-29T18:08:49.892Z,8.67
2018-12-29T18:11:22.048Z,9.97
2018-12-29T18:13:51.072Z,9.33
2018-12-29T18:16:24.003Z,10.33
2018-12-29T18:18:53.314Z,11.97
2018-12-29T18:21:28.011Z,10.03
2018-12-29T18:23:57.727Z,10.70
2018-12-29T18:26:29.621Z,11.03
2018-12-29T18:28:59.340Z,13.07
2018-12-29T18:31:33.830Z,13.30
2018-12-29T18:34:08.992Z,13.10
2018-12-29T18:36:38.422Z,13.87
2018-12-29T18:39:08.324Z,15.43
2018-12-29T18:41:38.905Z,15.47
2018-12-29T18:44:09.191Z,15.00
2018-12-29T18:46:41.241Z,15.17
2018-12-29T18:49:10.988Z,15.87
2018-12-29T18:51:45.319Z,15.00
2018-12-29T18:54:14.480Z,15.63
2018-12-29T18:56:46.937Z,16.50
2018-12-29T18:59:18.832Z,17.00
2018-12-29T19:01:57.398Z,17.47
2018-12-29T19:04:21.008Z,18.20
2018-12-29T19:06:53.943Z,16.67
2018-12-29T19:09:23.651Z,17.00
2018-12-29T19:11:55.551Z,17.33
2018-12-29T19:14:24.658Z,19.80
2018-12-29T19:16:59.200Z,17.93
2018-12-29T19:19:29.536Z,18.70
2018-12-29T19:22:02.712Z,19.17
2018-12-29T19:24:31.761Z,17.47
2018-12-29T19:27:06.245Z,17.37
2018-12-29T19:29:35.942Z,18.60
2018-12-29T19:32:08.360Z,17.63
2018-12-29T19:34:39.618Z,18.47
2018-12-29T19:37:14.171Z,19.67
2018-12-29T19:39:44.418Z,22.03
2018-12-29T19:42:17.314Z,19.73
2018-12-29T19:44:47.331Z,20.83
2018-12-29T19:47:16.972Z,20.57
2018-12-29T19:49:53.586Z,20.20
2018-12-29T19:52:22.095Z,21.90
2018-12-29T19:54:51.182Z,23.10
2018-12-29T19:57:22.964Z,21.17
2018-12-29T19:59:52.270Z,21.83
2018-12-29T20:02:25.531Z,21.87
2018-12-29T20:04:55.211Z,22.60
2018-12-29T20:07:28.088Z,21.87
2018-12-29T20:09:57.108Z,22.43
2018-12-29T20:12:31.271Z,22.20
2018-12-29T20:15:00.953Z,23.00
2018-12-29T20:17:35.110Z,22.97
2018-12-29T20:20:05.390Z,23.23
2018-12-29T20:22:35.962Z,23.43
2018-12-29T20:25:05.134Z,22.10
2018-12-29T20:27:38.676Z,22.23
2018-12-29T20:30:08.251Z,21.87
2018-12-29T20:32:40.644Z,23.43
2018-12-29T20:35:10.747Z,22.73
2018-12-29T20:37:45.160Z,22.30
2018-12-29T20:40:14.982Z,23.00
2018-12-29T20:42:47.931Z,23.27
2018-12-29T20:45:17.664Z,21.17
2018-12-29T20:47:50.054Z,22.70
2018-12-29T20:50:19.764Z,22.93
2018-12-29T20:52:52.571Z,23.70
2018-12-29T20:55:22.579Z,20.57
2018-12-29T20:57:55.687Z,23.23
2018-12-29T21:00:25.907Z,21.80
2018-12-29T21:02:58.735Z,20.73
2018-12-29T21:05:28.569Z,22.17
2018-12-29T21:08:02.345Z,22.17
2018-12-29T21:10:32.075Z,21.10
2018-12-29T21:13:09.397Z,18.80
2018-12-29T21:15:40.215Z,21.57
2018-12-29T21:18:10.303Z,19.17
2018-12-29T21:20:39.992Z,17.47
2018-12-29T21:23:14.052Z,17.30
2018-12-29T21:25:44.047Z,20.97
2018-12-29T21:28:16.115Z,23.43
2018-12-29T21:30:46.140Z,23.53
2018-12-29T21:33:18.505Z,23.00
2018-12-29T21:35:48.188Z,21.73
2018-12-29T21:38:21.856Z,22.40
2018-12-29T21:40:51.557Z,22.57
2018-12-29T21:43:23.828Z,18.43
2018-12-29T21:45:54.589Z,19.43
2018-12-29T21:48:27.601Z,15.53
2018-12-29T21:50:59.072Z,15.27
2018-12-29T21:53:29.000Z,14.67
2018-12-29T21:55:58.704Z,14.20
2018-12-29T21:58:32.710Z,14.40
2018-12-29T22:01:02.447Z,14.77
2018-12-29T22:03:35.183Z,14.70
2018-12-29T22:06:08.115Z,14.87
2018-12-29T22:08:37.446Z,13.67
2018-12-29T22:11:07.434Z,13.83
2018-12-29T22:13:39.276Z,13.03
2018-12-29T22:16:09.264Z,13.30
2018-12-29T22:18:42.959Z,13.23
2018-12-29T22:21:12.695Z,13.80
2018-12-29T22:23:45.697Z,9.90
2018-12-29T22:26:15.455Z,9.60
2018-12-29T22:28:46.883Z,10.13
2018-12-29T22:31:16.850Z,8.90
2018-12-29T22:33:51.644Z,9.50
2018-12-29T22:36:20.668Z,8.47
2018-12-29T22:38:54.861Z,8.03
2018-12-29T22:41:24.527Z,8.93
2018-12-29T22:43:59.256Z,8.47
2018-12-29T22:46:28.975Z,9.60
2018-12-29T22:49:03.981Z,9.77
2018-12-29T22:51:33.989Z,10.60
2018-12-29T22:54:08.376Z,11.00
2018-12-29T22:56:38.056Z,8.73
2018-12-29T22:59:13.132Z,9.73
2018-12-29T23:01:42.148Z,10.47
2018-12-29T23:04:13.612Z,9.53
2018-12-29T23:06:43.599Z,9.03
2018-12-29T23:09:16.004Z,9.10
2018-12-29T23:11:45.085Z,8.47
2018-12-29T23:14:19.872Z,7.93
2018-12-29T23:16:49.751Z,6.87
2018-12-29T23:19:22.008Z,7.57
2018-12-29T23:21:51.731Z,5.93
2018-12-29T23:24:23.797Z,6.70
2018-12-29T23:26:53.459Z,6.80
2018-12-29T23:29:26.081Z,7.47
2018-12-29T23:31:55.800Z,6.80
2018-12-29T23:34:27.162Z,8.27
2018-12-29T23:36:56.490Z,7.13
2018-12-29T23:39:32.278Z,7.27
2018-12-29T23:42:02.456Z,6.40
2018-12-29T23:44:34.245Z,9.60
2018-12-29T23:47:04.945Z,6.30
2018-12-29T23:49:38.892Z,5.07
2018-12-29T23:52:08.464Z,3.97
2018-12-29T23:54:39.851Z,3.00
2018-12-29T23:57:09.936Z,3.60
2018-12-29T23:59:49.259Z,4.43
